createdAt,value
2019-04-28T00:02:22.442Z,0.97
2019-04-28T00:04:51.460Z,0.80
2019-04-28T00:07:21.526Z,0.90
2019-04-28T00:09:51.164Z,0.27
2019-04-28T00:12:21.039Z,0.87
2019-04-28T00:14:51.536Z,0.57
2019-04-28T00:17:21.152Z,0.70
2019-04-28T00:19:51.508Z,0.60
2019-04-28T00:22:21.559Z,1.00
2019-04-28T00:24:56.943Z,0.50
2019-04-28T00:27:25.236Z,0.78
2019-04-28T00:29:53.488Z,0.90
2019-04-28T00:32:21.761Z,0.30
2019-04-28T00:34:51.196Z,0.53
2019-04-28T00:37:23.885Z,0.40
2019-04-28T00:39:52.132Z,0.40
2019-04-28T00:42:22.616Z,1.03
2019-04-28T00:44:51.522Z,0.60
2019-04-28T00:47:21.020Z,1.07
2019-04-28T00:52:17.938Z,1.20
2019-04-28T00:54:46.623Z,1.05
2019-04-28T00:57:14.899Z,0.57
2019-04-28T00:59:54.165Z,0.60
2019-04-28T01:02:21.207Z,0.80
2019-04-28T01:04:51.313Z,1.00
2019-04-28T01:07:21.134Z,0.42
2019-04-28T01:09:51.508Z,0.50
2019-04-28T01:12:21.295Z,0.30
2019-04-28T01:14:50.314Z,0.50
2019-04-28T01:17:21.366Z,0.50
2019-04-28T01:20:03.515Z,0.40
2019-04-28T01:22:36.861Z,0.10
2019-04-28T01:25:06.386Z,0.30
2019-04-28T01:27:36.300Z,0.40
2019-04-28T01:30:11.031Z,0.30
2019-04-28T01:32:40.028Z,0.43
2019-04-28T01:35:09.509Z,0.50
2019-04-28T01:37:37.941Z,0.57
2019-04-28T01:40:06.647Z,0.50
2019-04-28T01:42:34.913Z,0.60
2019-04-28T01:45:03.723Z,0.50
2019-04-28T01:47:31.971Z,1.00
2019-04-28T01:50:02.044Z,0.40
2019-04-28T01:52:30.458Z,0.50
2019-04-28T01:55:00.466Z,0.73
2019-04-28T01:57:29.959Z,0.50
2019-04-28T01:59:59.790Z,0.40
2019-04-28T02:02:30.061Z,0.70
2019-04-28T02:04:59.869Z,0.50
2019-04-28T02:07:28.307Z,0.50
2019-04-28T02:09:56.595Z,0.40
2019-04-28T02:12:24.844Z,0.60
2019-04-28T02:14:53.115Z,1.00
2019-04-28T02:17:21.368Z,0.60
2019-04-28T02:19:51.240Z,1.20
2019-04-28T02:22:36.564Z,0.83
2019-04-28T02:25:06.672Z,0.90
2019-04-28T02:27:34.916Z,1.10
2019-04-28T02:30:03.827Z,1.00
2019-04-28T02:35:01.346Z,0.60
2019-04-28T02:37:30.550Z,0.70
2019-04-28T02:40:02.793Z,0.80
2019-04-28T02:42:30.902Z,0.63
2019-04-28T02:45:00.502Z,0.57
2019-04-28T02:47:33.643Z,0.60
2019-04-28T02:50:06.419Z,0.60
2019-04-28T02:52:52.319Z,0.90
2019-04-28T02:55:21.288Z,0.70
2019-04-28T02:57:51.572Z,0.90
2019-04-28T03:00:21.616Z,0.70
2019-04-28T03:02:51.357Z,0.90
2019-04-28T03:05:21.641Z,0.90
2019-04-28T03:07:51.552Z,1.00
2019-04-28T03:10:21.386Z,0.87
2019-04-28T03:12:51.600Z,1.50
2019-04-28T03:15:20.562Z,1.03
2019-04-28T03:17:52.448Z,0.80
2019-04-28T03:20:20.986Z,1.20
2019-04-28T03:22:51.068Z,0.87
2019-04-28T03:25:30.621Z,1.00
2019-04-28T03:31:40.510Z,1.17
2019-04-28T03:33:47.282Z,0.97
2019-04-28T03:36:15.050Z,1.23
2019-04-28T03:38:40.636Z,1.17
2019-04-28T03:41:11.163Z,1.10
2019-04-28T03:43:40.559Z,1.50
2019-04-28T03:46:10.793Z,1.47
2019-04-28T03:48:40.991Z,1.50
2019-04-28T03:51:10.808Z,1.30
2019-04-28T03:53:40.947Z,1.50
2019-04-28T03:56:11.391Z,1.50
2019-04-28T03:58:40.648Z,2.00
2019-04-28T04:01:10.709Z,1.43
2019-04-28T04:03:41.506Z,1.60
2019-04-28T04:06:10.540Z,1.37
2019-04-28T04:08:40.833Z,1.20
2019-04-28T04:11:22.571Z,1.53
2019-04-28T04:13:52.448Z,1.40
2019-04-28T04:16:22.362Z,1.63
2019-04-28T04:18:53.757Z,1.50
2019-04-28T04:21:22.383Z,1.50
2019-04-28T04:23:51.061Z,1.40
2019-04-28T04:26:21.282Z,1.40
2019-04-28T04:28:51.405Z,1.40
2019-04-28T04:31:19.979Z,2.23
2019-04-28T04:33:50.627Z,1.92
2019-04-28T04:36:20.761Z,1.37
2019-04-28T04:38:50.951Z,2.20
2019-04-28T04:41:20.119Z,3.20
2019-04-28T04:43:51.039Z,1.93
2019-04-28T04:46:21.919Z,1.87
2019-04-28T04:48:50.874Z,1.80
2019-04-28T04:51:21.309Z,2.13
2019-04-28T04:53:51.063Z,2.37
2019-04-28T04:56:21.721Z,1.93
2019-04-28T04:58:50.603Z,2.07
2019-04-28T05:01:23.187Z,2.27
2019-04-28T05:06:56.875Z,2.00
2019-04-28T05:09:25.117Z,2.00
2019-04-28T05:11:53.396Z,2.10
2019-04-28T05:14:21.640Z,1.93
2019-04-28T05:16:49.923Z,2.20
2019-04-28T05:19:19.455Z,2.77
2019-04-28T05:21:49.838Z,2.60
2019-04-28T05:24:25.341Z,2.03
2019-04-28T05:26:53.613Z,2.13
2019-04-28T05:29:26.903Z,2.00
2019-04-28T05:31:54.799Z,2.03
2019-04-28T05:34:24.080Z,1.80
2019-04-28T05:36:51.793Z,2.40
2019-04-28T05:39:20.071Z,2.20
2019-04-28T05:41:50.245Z,1.97
2019-04-28T05:44:20.114Z,1.70
2019-04-28T05:46:50.367Z,1.80
2019-04-28T05:49:29.711Z,1.80
2019-04-28T05:52:15.953Z,1.90
2019-04-28T05:54:49.649Z,7.40
2019-04-28T05:57:20.672Z,2.20
2019-04-28T05:59:50.762Z,1.70
2019-04-28T06:02:23.558Z,2.47
2019-04-28T06:04:51.838Z,1.90
2019-04-28T06:07:30.752Z,1.90
2019-04-28T06:10:00.143Z,1.75
2019-04-28T06:12:30.268Z,1.33
2019-04-28T06:15:00.038Z,1.73
2019-04-28T06:17:29.468Z,1.60
2019-04-28T06:19:57.794Z,1.70
2019-04-28T06:22:26.046Z,2.30
2019-04-28T06:24:54.319Z,1.77
2019-04-28T06:27:22.567Z,1.30
2019-04-28T06:29:50.834Z,1.67
2019-04-28T06:32:19.082Z,1.37
2019-04-28T06:34:47.351Z,1.67
2019-04-28T06:37:15.600Z,1.25
2019-04-28T06:39:43.869Z,1.90
2019-04-28T06:42:12.123Z,1.57
2019-04-28T06:44:40.387Z,1.27
2019-04-28T06:47:08.633Z,1.60
2019-04-28T06:49:36.901Z,1.57
2019-04-28T06:52:05.151Z,1.40
2019-04-28T06:54:33.493Z,1.63
2019-04-28T06:57:01.854Z,1.30
2019-04-28T06:59:30.191Z,1.13
2019-04-28T07:01:58.449Z,1.77
2019-04-28T07:04:26.800Z,1.73
2019-04-28T07:06:56.830Z,1.60
2019-04-28T07:09:25.186Z,1.73
2019-04-28T07:11:53.543Z,2.07
2019-04-28T07:14:21.813Z,1.60
2019-04-28T07:16:50.089Z,6.30
2019-04-28T07:19:18.431Z,1.40
2019-04-28T07:22:00.309Z,1.40
2019-04-28T07:24:28.566Z,1.03
2019-04-28T07:26:56.809Z,1.43
2019-04-28T07:29:25.228Z,1.80
2019-04-28T07:31:53.545Z,2.63
2019-04-28T07:34:22.086Z,1.40
2019-04-28T07:36:50.345Z,1.50
2019-04-28T07:39:18.614Z,1.20
2019-04-28T07:41:46.932Z,1.30
2019-04-28T07:44:15.228Z,1.40
2019-04-28T07:46:43.474Z,1.20
2019-04-28T07:49:11.741Z,1.43
2019-04-28T07:51:50.348Z,1.50
2019-04-28T07:54:20.098Z,1.20
2019-04-28T07:59:16.006Z,1.80
2019-04-28T08:01:44.726Z,1.30
2019-04-28T08:04:12.975Z,1.20
2019-04-28T08:06:41.243Z,1.07
2019-04-28T08:09:14.107Z,1.93
2019-04-28T08:11:42.377Z,1.20
2019-04-28T08:14:10.623Z,1.50
2019-04-28T08:16:39.140Z,1.30
2019-04-28T08:19:07.391Z,1.20
2019-04-28T08:21:35.665Z,1.10
2019-04-28T08:24:03.911Z,2.13
2019-04-28T08:26:32.277Z,5.30
2019-04-28T08:29:00.527Z,2.43
2019-04-28T08:31:32.871Z,1.20
2019-04-28T08:34:03.590Z,1.30
2019-04-28T08:36:31.867Z,1.40
2019-04-28T08:39:00.108Z,1.77
2019-04-28T08:41:28.450Z,1.70
2019-04-28T08:43:56.700Z,1.20
2019-04-28T08:46:24.969Z,1.40
2019-04-28T08:48:53.221Z,1.20
2019-04-28T08:51:21.510Z,1.27
2019-04-28T08:53:49.766Z,1.30
2019-04-28T08:56:18.033Z,1.17
2019-04-28T08:58:46.278Z,1.50
2019-04-28T09:01:14.549Z,1.57
2019-04-28T09:03:43.710Z,1.87
2019-04-28T09:06:12.002Z,1.62
2019-04-28T09:08:40.263Z,4.40
2019-04-28T09:11:08.558Z,2.07
2019-04-28T09:13:36.824Z,2.60
2019-04-28T09:16:05.096Z,3.33
2019-04-28T09:18:33.363Z,3.40
2019-04-28T09:21:02.505Z,3.07
2019-04-28T09:23:30.790Z,1.40
2019-04-28T09:25:59.062Z,1.47
2019-04-28T09:28:27.383Z,1.47
2019-04-28T09:30:55.674Z,1.67
2019-04-28T09:33:23.943Z,1.47
2019-04-28T09:35:52.200Z,1.23
2019-04-28T09:38:20.454Z,3.30
2019-04-28T09:40:48.810Z,1.40
2019-04-28T09:43:19.171Z,3.17
2019-04-28T09:45:55.835Z,3.43
2019-04-28T09:48:24.087Z,1.50
2019-04-28T09:50:52.356Z,1.10
2019-04-28T09:53:20.617Z,0.90
2019-04-28T09:55:49.233Z,1.70
2019-04-28T09:58:17.496Z,1.70
2019-04-28T10:00:45.772Z,1.40
2019-04-28T10:03:14.022Z,1.73
2019-04-28T10:05:42.305Z,1.60
2019-04-28T10:08:10.566Z,1.30
2019-04-28T10:10:38.983Z,2.47
2019-04-28T10:13:07.266Z,1.10
2019-04-28T10:15:35.528Z,1.00
2019-04-28T10:18:03.802Z,0.87
2019-04-28T10:20:32.132Z,0.80
2019-04-28T10:23:00.419Z,0.60
2019-04-28T10:25:28.682Z,1.07
2019-04-28T10:27:56.966Z,0.63
2019-04-28T10:30:26.179Z,0.83
2019-04-28T10:32:54.457Z,0.70
2019-04-28T10:35:22.731Z,0.70
2019-04-28T10:37:51.074Z,0.70
2019-04-28T10:40:36.326Z,0.90
2019-04-28T10:43:04.692Z,0.97
2019-04-28T10:45:34.736Z,0.80
2019-04-28T10:48:03.189Z,0.60
2019-04-28T10:50:31.525Z,0.83
2019-04-28T10:52:59.824Z,8.87
2019-04-28T10:55:28.154Z,1.23
2019-04-28T10:57:56.516Z,1.87
2019-04-28T11:00:26.398Z,0.70
2019-04-28T11:05:26.934Z,1.20
2019-04-28T11:07:55.665Z,0.80
2019-04-28T11:10:24.356Z,0.87
2019-04-28T11:12:52.636Z,0.40
2019-04-28T11:15:22.544Z,0.70
2019-04-28T11:17:50.822Z,0.73
2019-04-28T11:20:19.913Z,1.03
2019-04-28T11:25:15.907Z,1.20
2019-04-28T11:27:45.054Z,3.07
2019-04-28T11:30:14.626Z,0.60
2019-04-28T11:32:44.557Z,0.80
2019-04-28T11:35:21.874Z,0.77
2019-04-28T11:37:47.438Z,0.60
2019-04-28T11:40:15.683Z,0.67
2019-04-28T11:42:43.969Z,0.60
2019-04-28T11:45:12.233Z,0.70
2019-04-28T11:47:40.511Z,0.50
2019-04-28T11:50:09.658Z,0.47
2019-04-28T11:52:38.116Z,0.60
2019-04-28T11:55:07.023Z,0.50
2019-04-28T11:57:35.387Z,0.50
2019-04-28T12:00:06.222Z,0.57
2019-04-28T12:02:34.502Z,0.40
2019-04-28T12:05:02.935Z,0.70
2019-04-28T12:07:31.287Z,2.63
2019-04-28T12:10:05.935Z,0.80
2019-04-28T12:12:32.843Z,0.60
2019-04-28T12:15:11.938Z,1.90
2019-04-28T12:17:44.730Z,0.73
2019-04-28T12:20:14.622Z,2.47
2019-04-28T12:22:43.033Z,1.17
2019-04-28T12:25:11.285Z,1.03
2019-04-28T12:27:39.624Z,0.70
2019-04-28T12:30:08.153Z,1.00
2019-04-28T12:32:36.702Z,3.03
2019-04-28T12:35:05.438Z,1.00
2019-04-28T12:37:33.689Z,1.03
2019-04-28T12:40:01.947Z,1.10
2019-04-28T12:42:30.195Z,1.60
2019-04-28T12:44:58.536Z,1.07
2019-04-28T12:47:27.093Z,1.20
2019-04-28T12:49:59.463Z,1.33
2019-04-28T12:52:27.727Z,1.37
2019-04-28T12:54:56.066Z,1.10
2019-04-28T12:57:24.384Z,1.50
2019-04-28T13:00:03.565Z,0.67
2019-04-28T13:02:33.535Z,0.75
2019-04-28T13:05:03.694Z,0.90
2019-04-28T13:07:31.969Z,0.70
2019-04-28T13:10:00.347Z,1.03
2019-04-28T13:12:28.693Z,1.47
2019-04-28T13:14:57.047Z,0.90
2019-04-28T13:17:26.298Z,0.80
2019-04-28T13:19:54.609Z,1.00
2019-04-28T13:22:22.874Z,1.00
2019-04-28T13:24:51.126Z,1.57
2019-04-28T13:27:19.367Z,2.80
2019-04-28T13:29:47.646Z,1.40
2019-04-28T13:32:15.909Z,0.73
2019-04-28T13:34:44.172Z,0.70
2019-04-28T13:37:12.513Z,0.90
2019-04-28T13:39:42.456Z,0.90
2019-04-28T13:42:10.715Z,1.20
2019-04-28T13:44:49.909Z,1.10
2019-04-28T13:47:18.178Z,1.30
2019-04-28T13:49:56.934Z,3.27
2019-04-28T13:52:25.190Z,0.83
2019-04-28T13:54:55.103Z,1.10
2019-04-28T13:57:25.272Z,1.17
2019-04-28T13:59:55.208Z,1.07
2019-04-28T14:02:30.900Z,1.93
2019-04-28T14:05:10.098Z,3.23
2019-04-28T14:07:38.368Z,0.78
2019-04-28T14:10:07.412Z,0.70
2019-04-28T14:12:35.669Z,0.78
2019-04-28T14:15:04.272Z,0.80
2019-04-28T14:17:32.554Z,0.80
2019-04-28T14:20:00.804Z,0.80
2019-04-28T14:22:29.105Z,0.70
2019-04-28T14:24:57.345Z,0.60
2019-04-28T14:27:25.584Z,0.87
2019-04-28T14:29:53.857Z,0.83
2019-04-28T14:32:22.263Z,1.00
2019-04-28T14:34:50.646Z,0.80
2019-04-28T14:37:18.892Z,0.83
2019-04-28T14:39:47.138Z,0.80
2019-04-28T14:42:15.462Z,0.97
2019-04-28T14:44:43.720Z,0.97
2019-04-28T14:47:12.107Z,1.00
2019-04-28T14:49:40.346Z,0.80
2019-04-28T14:52:08.619Z,1.10
2019-04-28T14:54:36.975Z,1.10
2019-04-28T14:57:05.303Z,1.90
2019-04-28T14:59:33.555Z,1.03
2019-04-28T15:02:21.828Z,0.90
2019-04-28T15:05:07.876Z,0.93
2019-04-28T15:07:46.597Z,1.27
2019-04-28T15:10:32.626Z,1.03
2019-04-28T15:13:01.175Z,1.20
2019-04-28T15:15:29.531Z,1.03
2019-04-28T15:17:57.780Z,1.20
2019-04-28T15:20:26.052Z,1.10
2019-04-28T15:22:54.441Z,1.37
2019-04-28T15:25:22.697Z,1.60
2019-04-28T15:27:51.875Z,1.60
2019-04-28T15:30:20.889Z,1.50
2019-04-28T15:35:16.872Z,1.57
2019-04-28T15:37:46.100Z,1.23
2019-04-28T15:40:14.363Z,1.15
2019-04-28T15:42:42.645Z,1.00
2019-04-28T15:45:10.963Z,1.20
2019-04-28T15:47:39.333Z,1.17
2019-04-28T15:50:07.619Z,1.47
2019-04-28T15:52:35.915Z,0.97
2019-04-28T15:55:07.548Z,1.10
2019-04-28T15:57:35.934Z,0.97
2019-04-28T16:00:08.533Z,1.13
2019-04-28T16:02:38.820Z,1.07
2019-04-28T16:05:07.537Z,1.00
2019-04-28T16:07:35.811Z,1.37
2019-04-28T16:10:05.308Z,1.27
2019-04-28T16:12:33.662Z,1.40
2019-04-28T16:15:02.047Z,1.20
2019-04-28T16:17:30.327Z,1.10
2019-04-28T16:19:58.592Z,1.30
2019-04-28T16:22:26.882Z,1.50
2019-04-28T16:24:55.133Z,1.37
2019-04-28T16:27:23.419Z,1.40
2019-04-28T16:29:51.683Z,1.40
2019-04-28T16:32:19.961Z,1.30
2019-04-28T16:34:48.220Z,1.10
2019-04-28T16:37:16.574Z,1.40
2019-04-28T16:39:44.824Z,1.40
2019-04-28T16:42:15.002Z,1.43
2019-04-28T16:44:43.257Z,1.40
2019-04-28T16:47:11.544Z,1.53
2019-04-28T16:49:39.816Z,1.70
2019-04-28T16:52:08.186Z,1.80
2019-04-28T16:54:36.447Z,1.90
2019-04-28T16:57:09.104Z,1.57
2019-04-28T17:02:30.674Z,1.33
2019-04-28T17:04:58.959Z,1.67
2019-04-28T17:07:27.486Z,1.70
2019-04-28T17:09:55.755Z,1.70
2019-04-28T17:12:24.264Z,1.70
2019-04-28T17:14:52.515Z,1.60
2019-04-28T17:17:20.797Z,1.60
2019-04-28T17:19:49.072Z,3.23
2019-04-28T17:22:17.365Z,2.03
2019-04-28T17:24:45.632Z,1.67
2019-04-28T17:27:13.938Z,2.10
2019-04-28T17:29:42.193Z,1.67
2019-04-28T17:32:10.596Z,1.73
2019-04-28T17:34:38.961Z,2.30
2019-04-28T17:37:07.383Z,1.60
2019-04-28T17:39:35.650Z,1.90
2019-04-28T17:42:05.161Z,1.85
2019-04-28T17:44:33.453Z,1.70
2019-04-28T17:47:01.710Z,1.70
2019-04-28T17:49:31.625Z,1.97
2019-04-28T17:51:59.892Z,1.70
2019-04-28T17:54:28.188Z,1.60
2019-04-28T17:56:56.445Z,1.50
2019-04-28T17:59:24.732Z,1.60
2019-04-28T18:01:54.713Z,1.60
2019-04-28T18:04:24.651Z,1.57
2019-04-28T18:06:54.549Z,2.80
2019-04-28T18:09:23.003Z,2.13
2019-04-28T18:11:51.265Z,2.33
2019-04-28T18:14:19.551Z,2.27
2019-04-28T18:17:06.006Z,1.90
2019-04-28T18:19:34.677Z,2.10
2019-04-28T18:22:02.931Z,1.90
2019-04-28T18:24:31.213Z,2.30
2019-04-28T18:26:59.468Z,2.33
2019-04-28T18:29:27.764Z,2.17
2019-04-28T18:31:57.701Z,2.20
2019-04-28T18:34:30.744Z,2.13
2019-04-28T18:37:06.396Z,2.13
2019-04-28T18:39:36.439Z,6.23
2019-04-28T18:42:18.217Z,1.60
2019-04-28T18:44:46.511Z,5.80
2019-04-28T18:47:27.901Z,4.13
2019-04-28T18:49:56.234Z,4.27
2019-04-28T18:52:24.578Z,2.13
2019-04-28T18:54:52.951Z,2.07
2019-04-28T18:57:21.672Z,2.20
2019-04-28T18:59:49.959Z,2.00
2019-04-28T19:02:36.197Z,2.13
2019-04-28T19:05:06.780Z,2.17
2019-04-28T19:07:42.639Z,2.33
2019-04-28T19:10:29.082Z,1.93
2019-04-28T19:12:59.003Z,1.80
2019-04-28T19:15:45.322Z,2.10
2019-04-28T19:18:15.235Z,1.87
2019-04-28T19:20:43.518Z,2.03
2019-04-28T19:23:11.776Z,1.83
2019-04-28T19:25:40.137Z,2.17
2019-04-28T19:28:08.481Z,2.40
2019-04-28T19:30:36.768Z,1.97
2019-04-28T19:33:05.188Z,2.07
2019-04-28T19:35:33.564Z,1.97
2019-04-28T19:38:01.814Z,3.60
2019-04-28T19:40:30.092Z,1.93
2019-04-28T19:42:58.341Z,2.10
2019-04-28T19:45:26.651Z,2.20
2019-04-28T19:47:54.879Z,2.13
2019-04-28T19:50:23.167Z,2.50
2019-04-28T19:52:51.422Z,2.03
2019-04-28T19:55:21.350Z,2.60
2019-04-28T19:57:54.163Z,3.20
2019-04-28T20:00:30.057Z,3.33
2019-04-28T20:02:58.326Z,2.90
2019-04-28T20:05:26.613Z,2.30
2019-04-28T20:07:54.891Z,2.10
2019-04-28T20:10:23.174Z,2.53
2019-04-28T20:12:51.447Z,2.37
2019-04-28T20:15:19.728Z,2.10
2019-04-28T20:17:48.017Z,2.40
2019-04-28T20:20:16.426Z,2.33
2019-04-28T20:22:46.021Z,2.10
2019-04-28T20:25:14.343Z,2.05
2019-04-28T20:27:42.608Z,1.57
2019-04-28T20:30:11.356Z,3.20
2019-04-28T20:38:30.529Z,2.80
2019-04-28T20:41:00.426Z,2.30
2019-04-28T20:43:29.940Z,2.83
2019-04-28T20:45:58.267Z,4.30
2019-04-28T20:48:26.679Z,4.33
2019-04-28T20:50:54.968Z,3.67
2019-04-28T20:53:23.251Z,2.97
2019-04-28T20:55:51.552Z,2.77
2019-04-28T20:58:19.804Z,2.80
2019-04-28T21:00:48.089Z,3.37
2019-04-28T21:03:16.378Z,1.90
2019-04-28T21:05:44.667Z,2.00
2019-04-28T21:08:12.931Z,2.60
2019-04-28T21:10:41.210Z,2.00
2019-04-28T21:13:09.544Z,1.70
2019-04-28T21:15:37.862Z,3.30
2019-04-28T21:18:06.136Z,11.97
2019-04-28T21:20:34.412Z,14.00
2019-04-28T21:23:02.701Z,13.40
2019-04-28T21:25:30.962Z,3.13
2019-04-28T21:27:59.254Z,2.58
2019-04-28T21:30:27.518Z,2.43
2019-04-28T21:32:55.907Z,3.27
2019-04-28T21:35:24.147Z,2.17
2019-04-28T21:37:52.429Z,2.80
2019-04-28T21:40:21.049Z,2.20
2019-04-28T21:43:03.094Z,2.10
2019-04-28T21:45:50.338Z,2.53
2019-04-28T21:48:35.657Z,2.57
2019-04-28T21:51:03.911Z,2.40
2019-04-28T21:53:32.222Z,2.23
2019-04-28T21:56:00.484Z,3.23
2019-04-28T21:58:33.190Z,2.67
2019-04-28T22:00:59.114Z,2.97
2019-04-28T22:03:27.395Z,2.63
2019-04-28T22:05:55.641Z,3.40
2019-04-28T22:08:23.930Z,3.13
2019-04-28T22:10:52.200Z,3.03
2019-04-28T22:13:20.477Z,3.17
2019-04-28T22:15:48.735Z,3.37
2019-04-28T22:18:17.012Z,3.52
2019-04-28T22:20:45.274Z,3.40
2019-04-28T22:23:18.551Z,3.40
2019-04-28T22:25:45.172Z,3.60
2019-04-28T22:28:13.451Z,3.80
2019-04-28T22:30:41.722Z,4.10
2019-04-28T22:33:10.004Z,3.40
2019-04-28T22:35:38.257Z,3.93
2019-04-28T22:38:06.535Z,3.70
2019-04-28T22:40:34.785Z,4.03
2019-04-28T22:43:03.069Z,3.60
2019-04-28T22:45:31.328Z,3.60
2019-04-28T22:47:59.617Z,3.40
2019-04-28T22:50:36.354Z,3.67
2019-04-28T22:53:04.637Z,3.97
2019-04-28T22:55:34.532Z,3.60
2019-04-28T22:58:04.462Z,3.70
2019-04-28T23:00:34.352Z,3.67
2019-04-28T23:03:02.627Z,3.57
2019-04-28T23:05:30.905Z,4.17
2019-04-28T23:07:59.193Z,3.40
2019-04-28T23:10:27.446Z,3.73
2019-04-28T23:12:55.754Z,3.53
2019-04-28T23:15:24.042Z,3.50
2019-04-28T23:17:52.414Z,3.70
2019-04-28T23:20:24.230Z,3.30
2019-04-28T23:22:52.515Z,4.00
2019-04-28T23:25:20.854Z,3.20
2019-04-28T23:27:49.136Z,3.17
2019-04-28T23:30:37.966Z,3.37
2019-04-28T23:33:06.247Z,3.05
2019-04-28T23:35:34.508Z,3.23
2019-04-28T23:38:02.813Z,3.40
2019-04-28T23:40:31.066Z,3.40
2019-04-28T23:43:00.973Z,3.00
2019-04-28T23:45:29.326Z,3.10
2019-04-28T23:47:57.583Z,2.90
2019-04-28T23:50:27.506Z,2.60
2019-04-28T23:52:57.418Z,3.00
2019-04-28T23:55:25.702Z,2.87
2019-04-28T23:57:53.973Z,2.80
